Time;durP1;ratioP1;P1;durP2;ratioP2;P2;SDS_P1;SDS_P2;PMS_P1;PMS_P2;Temp;Humidity;BMP_temperature;BMP_pressure;BME280_temperature;BME280_humidity;BME280_pressure;Samples;Min_cycle;Max_cycle;Signal;HPM_P1;HPM_P2
2023/07/03 00:00:31;;;;;;;15.57;3.67;;;;;;;15.17;100.00;100852.13;5224961;28;20033;-66
2023/07/03 00:03:02;;;;;;;10.98;3.42;;;;;;;15.19;100.00;100850.16;5219543;28;20036;-67
2023/07/03 00:05:35;;;;;;;12.65;4.15;;;;;;;15.10;100.00;100844.66;5228102;28;20024;-67
2023/07/03 00:08:06;;;;;;;13.18;3.55;;;;;;;15.15;100.00;100849.59;5230592;28;20084;-66
2023/07/03 00:10:37;;;;;;;12.57;4.28;;;;;;;15.15;100.00;100844.22;5226279;28;20111;-66
2023/07/03 00:13:10;;;;;;;14.75;4.30;;;;;;;15.14;100.00;100839.00;5227774;28;20583;-66
2023/07/03 00:15:41;;;;;;;12.68;3.65;;;;;;;15.17;100.00;100846.75;5226577;28;20028;-66
2023/07/03 00:18:12;;;;;;;14.15;4.25;;;;;;;15.13;100.00;100843.53;5228100;28;20293;-66
2023/07/03 00:20:45;;;;;;;18.58;3.88;;;;;;;15.17;100.00;100846.75;5230507;28;20032;-66
2023/07/03 00:23:16;;;;;;;14.15;4.90;;;;;;;15.12;100.00;100841.81;5232008;28;20037;-66
2023/07/03 00:25:49;;;;;;;14.38;4.13;;;;;;;15.13;100.00;100837.28;5227532;28;21236;-67
2023/07/03 00:28:20;;;;;;;16.52;4.32;;;;;;;15.12;100.00;100843.66;5225274;28;20487;-66
2023/07/03 00:30:52;;;;;;;16.33;3.67;;;;;;;15.10;100.00;100843.81;5225066;28;20041;-66
2023/07/03 00:33:23;;;;;;;15.90;4.15;;;;;;;15.08;100.00;100837.75;5222478;28;20671;-66
2023/07/03 00:35:54;;;;;;;16.23;3.92;;;;;;;15.07;100.00;100836.91;5214057;28;20021;-66
2023/07/03 00:38:26;;;;;;;13.77;4.18;;;;;;;15.06;100.00;100832.50;5215355;28;20452;-66
2023/07/03 00:40:57;;;;;;;14.02;4.15;;;;;;;15.08;100.00;100830.50;5211439;28;20098;-67
2023/07/03 00:43:33;;;;;;;12.10;4.03;;;;;;;15.05;100.00;100838.03;5212261;28;20060;-66
2023/07/03 00:46:06;;;;;;;12.90;4.15;;;;;;;15.04;100.00;100837.19;5213361;28;20025;-66
2023/07/03 00:48:39;;;;;;;19.02;4.70;;;;;;;15.14;100.00;100841.69;5212598;28;20606;-66
2023/07/03 00:51:13;;;;;;;17.85;4.25;;;;;;;15.04;100.00;100829.13;5212037;28;20757;-66
2023/07/03 00:53:44;;;;;;;18.17;4.10;;;;;;;15.04;100.00;100828.28;5216725;28;20026;-66
2023/07/03 00:56:16;;;;;;;12.98;4.07;;;;;;;15.02;100.00;100825.72;5210974;28;20033;-66
2023/07/03 00:58:47;;;;;;;13.75;3.83;;;;;;;15.05;100.00;100832.66;5210762;28;20053;-66
2023/07/03 01:01:27;;;;;;;14.02;3.95;;;;;;;15.04;100.00;100829.13;5213998;28;20037;-66
2023/07/03 01:04:25;;;;;;;15.75;4.07;;;;;;;15.06;100.00;100827.13;5223895;28;20033;-66
2023/07/03 01:07:03;;;;;;;16.13;4.40;;;;;;;15.01;100.00;100826.72;5226963;28;20041;-67
2023/07/03 01:09:43;;;;;;;13.93;3.95;;;;;;;15.01;100.00;100821.34;5223562;28;20380;-66
2023/07/03 01:12:17;;;;;;;14.02;3.88;;;;;;;14.99;100.00;100826.00;5222887;28;20514;-66
2023/07/03 01:14:49;;;;;;;20.20;4.07;;;;;;;14.96;100.00;100829.00;5227436;28;20525;-66
2023/07/03 01:17:23;;;;;;;18.73;5.28;;;;;;;14.95;100.00;100826.47;5227231;28;20476;-66
2023/07/03 01:19:57;;;;;;;16.60;3.85;;;;;;;14.94;100.00;100830.13;5223794;28;20036;-67
2023/07/03 01:22:36;;;;;;;16.38;5.00;;;;;;;14.93;100.00;100829.28;5229851;28;20044;-66
2023/07/03 01:25:12;;;;;;;17.75;4.13;;;;;;;14.90;100.00;100829.59;5225412;28;20045;-66
2023/07/03 01:27:45;;;;;;;16.00;4.00;;;;;;;14.84;100.00;100824.78;5226482;28;20030;-66
2023/07/03 01:30:19;;;;;;;20.55;4.35;;;;;;;14.84;100.00;100832.84;5220084;28;20044;-66
2023/07/03 01:32:53;;;;;;;18.98;4.55;;;;;;;14.83;100.00;100832.00;5228305;28;20033;-66
2023/07/03 01:35:26;;;;;;;17.33;4.35;;;;;;;14.80;100.00;100828.75;5215591;28;20436;-66
2023/07/03 01:37:58;;;;;;;18.83;4.38;;;;;;;14.77;100.00;100826.38;5221416;28;20081;-66
2023/07/03 01:40:30;;;;;;;18.73;4.75;;;;;;;14.80;100.00;100826.91;5218580;28;20033;-66
2023/07/03 01:43:02;;;;;;;22.55;4.68;;;;;;;14.76;100.00;100830.06;5215174;28;20079;-66
2023/07/03 01:45:34;;;;;;;16.00;4.13;;;;;;;14.69;100.00;100825.28;5221312;28;20026;-66
2023/07/03 01:48:05;;;;;;;15.38;4.50;;;;;;;14.70;100.00;100824.25;5222434;28;20273;-66
2023/07/03 01:50:38;;;;;;;15.85;4.60;;;;;;;14.72;100.00;100820.59;5225678;28;20246;-66
2023/07/03 01:53:36;;;;;;;16.50;4.70;;;;;;;14.72;100.00;100815.22;5214406;28;20120;-67
2023/07/03 01:56:28;;;;;;;16.90;4.28;;;;;;;14.66;100.00;100814.81;5222374;28;20021;-66
2023/07/03 01:59:06;;;;;;;19.08;4.60;;;;;;;14.63;100.00;100819.63;5213939;28;20068;-67
2023/07/03 02:01:57;;;;;;;18.65;4.70;;;;;;;14.65;100.00;100817.63;5220142;28;20040;-66
2023/07/03 02:04:37;;;;;;;20.65;4.60;;;;;;;14.62;100.00;100821.47;5228787;28;20060;-66
2023/07/03 02:07:11;;;;;;;23.08;4.50;;;;;;;14.58;100.00;100816.53;5220230;28;20046;-66
2023/07/03 02:09:43;;;;;;;18.90;4.72;;;;;;;14.54;100.00;100815.94;5222619;28;20033;-66
2023/07/03 02:12:14;;;;;;;20.20;4.95;;;;;;;14.55;100.00;100817.63;5218614;28;20483;-66
2023/07/03 02:14:46;;;;;;;18.52;5.00;;;;;;;14.51;100.00;100818.91;5226224;28;20049;-66
2023/07/03 02:17:17;;;;;;;16.98;4.68;;;;;;;14.49;100.00;100807.47;5225642;28;20028;-66
2023/07/03 02:19:49;;;;;;;21.90;5.38;;;;;;;14.45;100.00;100806.06;5206524;28;20033;-66
2023/07/03 02:22:20;;;;;;;16.55;4.55;;;;;;;14.44;100.00;100815.09;5228080;28;20025;-66
2023/07/03 02:24:52;;;;;;;16.77;4.55;;;;;;;14.41;100.00;100815.38;5220238;28;20029;-66
2023/07/03 02:27:23;;;;;;;23.98;5.57;;;;;;;14.37;100.00;100819.34;5215817;28;21461;-66
2023/07/03 02:29:54;;;;;;;19.40;4.85;;;;;;;14.35;100.00;100814.13;5213932;28;20455;-66
2023/07/03 02:32:37;;;;;;;18.98;4.60;;;;;;;14.35;100.00;100818.66;5217118;28;20112;-66
2023/07/03 02:35:10;;;;;;;19.10;4.88;;;;;;;14.26;100.00;100817.66;5229854;28;20162;-66
2023/07/03 02:37:41;;;;;;;18.45;5.30;;;;;;;14.22;100.00;100810.88;5225782;28;20038;-66
2023/07/03 02:40:13;;;;;;;21.45;4.85;;;;;;;14.20;100.00;100810.19;5221204;28;20041;-66
2023/07/03 02:42:45;;;;;;;21.75;5.05;;;;;;;14.16;100.00;100806.09;5220568;28;20026;-66
2023/07/03 02:45:16;;;;;;;21.60;4.82;;;;;;;14.17;100.00;100807.75;5225258;28;20068;-66
2023/07/03 02:47:47;;;;;;;22.60;5.35;;;;;;;14.13;100.00;100804.50;5222636;28;20026;-66
2023/07/03 02:50:19;;;;;;;18.98;5.07;;;;;;;14.11;100.00;100802.00;5217992;28;20094;-66
2023/07/03 02:52:50;;;;;;;19.42;5.28;;;;;;;14.10;100.00;100800.28;5216848;28;20404;-66
2023/07/03 02:55:22;;;;;;;18.90;4.93;;;;;;;14.05;100.00;100804.38;5223477;28;20065;-66
2023/07/03 02:57:57;;;;;;;31.63;7.07;;;;;;;14.07;100.00;100802.41;5228549;28;20419;-67
2023/07/03 03:00:29;;;;;;;23.83;5.90;;;;;;;13.96;100.00;100805.22;5221691;28;20037;-66
2023/07/03 03:03:00;;;;;;;16.33;5.07;;;;;;;13.95;100.00;100803.53;5224406;28;20372;-66
2023/07/03 03:05:32;;;;;;;17.33;4.90;;;;;;;13.88;100.00;100812.16;5228623;28;20432;-66
2023/07/03 03:08:04;;;;;;;23.38;6.43;;;;;;;13.84;100.00;100799.97;5224234;28;20041;-66
2023/07/03 03:10:36;;;;;;;21.45;5.45;;;;;;;13.79;100.00;100790.66;5232521;28;20026;-66
2023/07/03 03:13:07;;;;;;;20.95;5.18;;;;;;;13.79;100.00;100802.25;5226236;28;20561;-66
2023/07/03 03:15:38;;;;;;;23.83;5.45;;;;;;;13.83;100.00;100794.78;5228854;28;20045;-66
2023/07/03 03:18:10;;;;;;;26.02;6.07;;;;;;;13.82;100.00;100798.44;5227330;28;20105;-66
2023/07/03 03:20:44;;;;;;;22.77;6.00;;;;;;;13.75;100.00;100797.28;5223737;28;20144;-66
2023/07/03 03:23:15;;;;;;;24.97;5.33;;;;;;;13.79;100.00;100801.38;5227333;28;20053;-66
2023/07/03 03:25:46;;;;;;;20.90;5.72;;;;;;;13.77;100.00;100798.00;5224840;28;20842;-66
2023/07/03 03:28:18;;;;;;;19.90;5.63;;;;;;;13.82;100.00;100788.56;5225834;28;20472;-66
2023/07/03 03:30:49;;;;;;;22.55;5.78;;;;;;;13.76;100.00;100799.00;5235555;28;20032;-66
2023/07/03 03:33:21;;;;;;;25.55;5.68;;;;;;;13.75;100.00;100795.50;5231704;28;20048;-66
2023/07/03 03:35:52;;;;;;;22.08;5.97;;;;;;;13.75;100.00;100805.34;5227544;28;20456;-66
2023/07/03 03:38:23;;;;;;;21.20;5.88;;;;;;;13.72;100.00;100795.75;5225848;28;20464;-66
2023/07/03 03:40:58;;;;;;;20.98;5.80;;;;;;;13.68;100.00;100797.03;5219550;28;20134;-66
2023/07/03 03:43:29;;;;;;;;;;;;;;;13.79;100.00;100788.84;5226412;28;20025;-66
2023/07/03 03:46:02;;;;;;;26.23;5.78;;;;;;;13.68;100.00;100800.53;5228284;28;20010;-66
2023/07/03 03:48:35;;;;;;;24.60;5.93;;;;;;;13.69;100.00;100796.00;5230681;28;20066;-66
2023/07/03 03:51:06;;;;;;;18.95;5.22;;;;;;;13.64;100.00;100798.28;5226307;28;20025;-66
2023/07/03 03:53:38;;;;;;;25.35;5.40;;;;;;;13.64;100.00;100800.97;5224994;28;20392;-66
2023/07/03 03:56:10;;;;;;;20.98;5.82;;;;;;;13.65;100.00;100792.78;5230166;28;20033;-66
2023/07/03 03:58:41;;;;;;;21.45;5.30;;;;;;;13.64;100.00;100811.69;5232860;28;20021;-66
2023/07/03 04:01:14;;;;;;;23.23;6.88;;;;;;;13.59;100.00;100803.22;5225256;28;20056;-66
2023/07/03 04:03:45;;;;;;;25.17;6.70;;;;;;;13.58;100.00;100804.22;5220168;28;20684;-66
2023/07/03 04:06:16;;;;;;;22.50;5.95;;;;;;;13.57;100.00;100816.75;5218206;28;20508;-66
2023/07/03 04:08:48;;;;;;;22.48;5.35;;;;;;;13.59;100.00;100808.56;5215381;28;20026;-66
2023/07/03 04:11:20;;;;;;;23.02;5.93;;;;;;;13.64;100.00;100812.53;5221733;28;20135;-66
2023/07/03 04:13:51;;;;;;;26.90;5.72;;;;;;;13.63;100.00;100802.78;5216520;28;20029;-66
2023/07/03 04:16:24;;;;;;;26.80;6.78;;;;;;;13.65;100.00;100797.28;5222227;28;20109;-66
2023/07/03 04:18:55;;;;;;;24.55;6.25;;;;;;;13.68;100.00;100802.38;5221634;28;21275;-66
2023/07/03 04:21:27;;;;;;;25.08;6.07;;;;;;;13.66;100.00;100809.72;5227257;28;20103;-66
2023/07/03 04:23:59;;;;;;;24.73;5.60;;;;;;;13.70;100.00;100805.78;5222708;28;20083;-66
2023/07/03 04:26:30;;;;;;;24.75;6.40;;;;;;;13.78;100.00;100805.91;5222967;28;20404;-66
2023/07/03 04:29:01;;;;;;;20.13;5.75;;;;;;;13.80;100.00;100808.47;5221123;28;20537;-67
2023/07/03 04:31:34;;;;;;;24.50;6.38;;;;;;;13.83;100.00;100805.50;5225183;28;20056;-66
2023/07/03 04:34:05;;;;;;;22.08;6.20;;;;;;;13.77;100.00;100804.22;5223091;28;20055;-66
2023/07/03 04:36:37;;;;;;;22.98;6.70;;;;;;;13.79;100.00;100802.25;5225860;28;20025;-66
2023/07/03 04:39:08;;;;;;;24.80;6.68;;;;;;;13.80;100.00;100806.63;5228557;28;20057;-66
2023/07/03 04:41:40;;;;;;;23.92;6.10;;;;;;;13.85;100.00;100814.25;5219465;28;21707;-66
2023/07/03 04:44:12;;;;;;;22.30;6.22;;;;;;;13.84;100.00;100808.03;5243520;28;20465;-66
2023/07/03 04:46:43;;;;;;;20.98;5.97;;;;;;;13.86;100.00;100815.94;5226717;28;20025;-66
2023/07/03 04:49:15;;;;;;;26.02;6.88;;;;;;;13.88;100.00;100816.66;5229842;28;20057;-66
2023/07/03 04:51:46;;;;;;;18.27;5.93;;;;;;;13.91;100.00;100819.06;5228110;28;20037;-66
2023/07/03 04:54:18;;;;;;;23.40;6.13;;;;;;;14.03;100.00;100822.47;5227443;28;21176;-66
2023/07/03 04:56:50;;;;;;;22.33;5.72;;;;;;;14.03;100.00;100825.97;5235729;28;20032;-66
2023/07/03 04:59:21;;;;;;;22.20;6.82;;;;;;;14.11;100.00;100822.59;5224824;28;20391;-67
2023/07/03 05:01:53;;;;;;;22.35;6.68;;;;;;;14.12;100.00;100829.66;5220334;28;20034;-66
2023/07/03 05:04:24;;;;;;;21.98;6.07;;;;;;;14.13;100.00;100836.72;5222718;28;20053;-66
2023/07/03 05:06:55;;;;;;;22.52;6.35;;;;;;;14.16;100.00;100832.91;5225062;28;20046;-66
2023/07/03 05:09:27;;;;;;;20.65;5.80;;;;;;;14.23;100.00;100834.91;5226814;28;21044;-66
2023/07/03 05:11:58;;;;;;;23.75;6.20;;;;;;;14.34;100.00;100830.38;5220537;28;20179;-66
2023/07/03 05:14:30;;;;;;;27.27;6.43;;;;;;;14.45;100.00;100840.94;5225087;28;20025;-66
2023/07/03 05:17:02;;;;;;;26.55;6.35;;;;;;;14.57;100.00;100842.50;5230445;28;20399;-66
2023/07/03 05:19:33;;;;;;;23.33;6.00;;;;;;;14.65;100.00;100845.34;5225236;28;20029;-67
2023/07/03 05:22:05;;;;;;;24.15;5.78;;;;;;;14.72;100.00;100839.41;5226492;28;20038;-66
2023/07/03 05:24:36;;;;;;;19.90;5.68;;;;;;;14.80;100.00;100842.19;5225252;28;20087;-66
2023/07/03 05:27:08;;;;;;;21.85;5.90;;;;;;;14.93;100.00;100848.09;5220863;28;20033;-67
2023/07/03 05:29:39;;;;;;;19.60;6.07;;;;;;;15.05;100.00;100843.41;5218743;28;20903;-66
2023/07/03 05:32:11;;;;;;;20.40;5.28;;;;;;;15.22;100.00;100845.31;5225793;28;20033;-66
2023/07/03 05:34:42;;;;;;;27.23;6.40;;;;;;;15.25;100.00;100844.19;5216436;28;20040;-67
2023/07/03 05:37:13;;;;;;;23.73;5.97;;;;;;;15.29;100.00;100850.94;5214012;28;20253;-67
2023/07/03 05:39:48;;;;;;;20.67;5.72;;;;;;;15.33;100.00;100846.97;5222219;28;20111;-67
2023/07/03 05:42:20;;;;;;;21.13;6.05;;;;;;;15.35;100.00;100836.91;5220797;28;20030;-67
2023/07/03 05:44:51;;;;;;;22.08;5.82;;;;;;;15.41;100.00;100848.91;5212128;28;20052;-67
2023/07/03 05:47:23;;;;;;;23.40;5.75;;;;;;;15.44;100.00;100857.53;5223876;28;20021;-66
2023/07/03 05:49:55;;;;;;;23.00;6.30;;;;;;;15.48;100.00;100847.34;5224066;28;20052;-66
2023/07/03 05:52:27;;;;;;;21.08;6.40;;;;;;;15.46;100.00;100854.69;5223152;28;20053;-66
2023/07/03 05:54:58;;;;;;;24.08;5.15;;;;;;;15.51;100.00;100849.69;5221571;28;20104;-67
2023/07/03 05:57:30;;;;;;;19.67;5.45;;;;;;;15.55;100.00;100847.56;5220962;28;20694;-66
2023/07/03 06:00:03;;;;;;;20.67;5.85;;;;;;;15.60;100.00;100854.19;5222276;28;20033;-67
2023/07/03 06:02:37;;;;;;;27.15;5.90;;;;;;;15.68;100.00;100856.13;5222040;28;20033;-67
2023/07/03 06:05:11;;;;;;;24.10;6.07;;;;;;;15.74;100.00;100857.41;5222852;28;20464;-67
2023/07/03 06:07:42;;;;;;;21.55;6.13;;;;;;;15.76;100.00;100860.78;5228117;28;20080;-67
2023/07/03 06:10:13;;;;;;;21.70;5.95;;;;;;;15.80;100.00;100851.41;5228015;28;20047;-67
2023/07/03 06:12:45;;;;;;;24.38;5.72;;;;;;;15.86;100.00;100853.53;5210177;28;20037;-66
2023/07/03 06:15:16;;;;;;;17.05;5.30;;;;;;;15.93;100.00;100853.75;5225213;28;20029;-66
2023/07/03 06:17:47;;;;;;;19.67;5.70;;;;;;;15.93;100.00;100856.44;5226317;28;20444;-66
2023/07/03 06:20:19;;;;;;;17.83;5.38;;;;;;;15.97;100.00;100849.75;5227563;28;20038;-66
2023/07/03 06:22:50;;;;;;;20.52;5.28;;;;;;;16.06;100.00;100862.28;5226742;28;20044;-67
2023/07/03 06:25:22;;;;;;;18.40;5.22;;;;;;;16.09;100.00;100856.63;5229294;28;20018;-67
2023/07/03 06:27:56;;;;;;;20.25;5.93;;;;;;;16.16;100.00;100857.66;5227874;28;20032;-66
2023/07/03 06:30:27;;;;;;;19.23;5.60;;;;;;;16.24;100.00;100859.59;5233036;28;20348;-67
2023/07/03 06:32:59;;;;;;;19.88;5.80;;;;;;;16.31;100.00;100857.97;5234944;28;20034;-67
2023/07/03 06:35:30;;;;;;;26.25;7.35;;;;;;;16.33;100.00;100852.44;5231214;28;20044;-66
2023/07/03 06:38:03;;;;;;;22.27;5.78;;;;;;;16.40;100.00;100864.31;5230959;28;20072;-67
2023/07/03 06:40:34;;;;;;;23.90;5.00;;;;;;;16.41;100.00;100858.75;5231473;28;20025;-66
2023/07/03 06:43:05;;;;;;;14.93;4.57;;;;;;;16.45;100.00;100862.84;5230486;28;20373;-67
2023/07/03 06:45:37;;;;;;;20.20;4.55;;;;;;;16.47;100.00;100854.56;5227485;28;20029;-66
2023/07/03 06:48:08;;;;;;;16.10;4.90;;;;;;;16.56;100.00;100850.94;5229681;28;20029;-67
2023/07/03 06:50:40;;;;;;;18.15;5.60;;;;;;;16.59;100.00;100847.97;5232719;28;20084;-67
2023/07/03 06:53:11;;;;;;;22.70;5.60;;;;;;;16.63;100.00;100840.41;5225462;28;20037;-67
2023/07/03 06:55:42;;;;;;;18.52;5.40;;;;;;;16.68;100.00;100840.75;5230061;28;20456;-67
2023/07/03 06:58:14;;;;;;;17.70;5.03;;;;;;;16.82;100.00;100858.25;5226421;28;20112;-67
2023/07/03 07:00:45;;;;;;;16.02;5.13;;;;;;;16.83;100.00;100843.78;5225291;28;20707;-67
2023/07/03 07:03:17;;;;;;;17.85;4.70;;;;;;;16.96;100.00;100851.44;5222638;28;20439;-67
2023/07/03 07:05:48;;;;;;;14.65;4.82;;;;;;;17.00;100.00;100847.41;5226946;28;20025;-67
2023/07/03 07:08:20;;;;;;;19.08;4.57;;;;;;;17.02;100.00;100864.28;5230872;28;20042;-67
2023/07/03 07:10:51;;;;;;;19.52;5.00;;;;;;;17.10;100.00;100869.72;5225769;28;20288;-67
2023/07/03 07:13:23;;;;;;;15.35;4.70;;;;;;;17.18;100.00;100874.31;5232287;28;20050;-66
2023/07/03 07:15:54;;;;;;;20.10;4.50;;;;;;;17.22;100.00;100859.50;5226890;28;20029;-67
2023/07/03 07:18:25;;;;;;;18.15;4.75;;;;;;;17.30;100.00;100861.41;5227777;28;20054;-67
2023/07/03 07:20:57;;;;;;;18.27;4.55;;;;;;;17.29;100.00;100857.00;5227617;28;20104;-67
2023/07/03 07:23:28;;;;;;;17.08;5.03;;;;;;;17.32;100.00;100864.78;5242178;28;20048;-67
2023/07/03 07:26:00;;;;;;;17.23;4.82;;;;;;;17.46;100.00;100868.72;5228100;28;20081;-67
2023/07/03 07:28:31;;;;;;;20.13;5.60;;;;;;;17.48;100.00;100861.31;5229726;28;20463;-67
2023/07/03 07:31:03;;;;;;;19.15;4.65;;;;;;;17.47;100.00;100865.88;5228441;28;20037;-66
2023/07/03 07:33:35;;;;;;;18.55;4.60;;;;;;;17.55;100.00;100865.91;5229307;28;20034;-66
2023/07/03 07:36:12;;;;;;;14.93;4.43;;;;;;;17.59;100.00;100869.13;5223676;28;20037;-66
2023/07/03 07:38:43;;;;;;;16.52;4.97;;;;;;;17.60;100.00;100863.56;5229247;28;20090;-66
2023/07/03 07:41:15;;;;;;;18.40;5.40;;;;;;;17.71;100.00;100867.81;5225120;28;20026;-66
2023/07/03 07:43:48;;;;;;;16.38;4.72;;;;;;;17.88;100.00;100876.00;5227790;28;20173;-66
2023/07/03 07:46:20;;;;;;;16.35;4.47;;;;;;;18.03;100.00;100868.94;5228246;28;20483;-67
2023/07/03 07:48:51;;;;;;;16.75;4.50;;;;;;;18.12;100.00;100873.34;5230011;28;20116;-66
2023/07/03 07:51:24;;;;;;;15.60;4.15;;;;;;;18.23;100.00;100873.00;5232126;28;20033;-67
2023/07/03 07:53:57;;;;;;;17.88;4.25;;;;;;;18.30;100.00;100877.78;5227516;28;20033;-66
2023/07/03 07:56:28;;;;;;;19.08;5.55;;;;;;;18.34;100.00;100877.25;5223825;28;20033;-66
2023/07/03 07:59:00;;;;;;;15.43;3.65;;;;;;;18.34;100.00;100887.22;5227907;28;20031;-67
2023/07/03 08:01:31;;;;;;;11.07;3.38;;;;;;;18.34;100.00;100877.25;5232742;28;20075;-67
2023/07/03 08:04:03;;;;;;;18.15;4.50;;;;;;;18.40;100.00;100890.09;5229058;28;20218;-66
2023/07/03 08:06:34;;;;;;;13.18;3.28;;;;;;;18.47;100.00;100894.84;5224595;28;20046;-67
2023/07/03 08:09:05;;;;;;;14.73;4.00;;;;;;;18.45;100.00;100889.59;5226578;28;20042;-67
2023/07/03 08:11:38;;;;;;;14.93;3.55;;;;;;;18.39;100.00;100891.13;5229804;28;20033;-66
2023/07/03 08:14:10;;;;;;;11.65;3.38;;;;;;;18.34;100.00;100898.88;5231101;28;20041;-66
2023/07/03 08:16:42;;;;;;;18.92;4.25;;;;;;;18.31;100.00;100901.88;5230944;28;20074;-66
2023/07/03 08:19:13;;;;;;;10.80;3.38;;;;;;;18.23;100.00;100901.88;5227947;28;20029;-66
2023/07/03 08:21:45;;;;;;;12.27;3.85;;;;;;;18.22;100.00;100903.75;5228311;28;20044;-67
2023/07/03 08:24:17;;;;;;;16.33;3.78;;;;;;;18.15;100.00;100902.72;5223271;28;20411;-67
2023/07/03 08:26:50;;;;;;;15.40;3.90;;;;;;;18.15;100.00;100910.81;5225496;28;20044;-66
2023/07/03 08:29:21;;;;;;;16.08;4.43;;;;;;;18.23;100.00;100910.81;5232342;28;20025;-66
2023/07/03 08:31:52;;;;;;;15.68;3.60;;;;;;;18.37;100.00;100916.59;5225022;28;20048;-67
2023/07/03 08:34:24;;;;;;;13.77;4.30;;;;;;;18.42;100.00;100906.97;5231240;28;20712;-67
2023/07/03 08:36:55;;;;;;;13.07;3.75;;;;;;;18.50;100.00;100913.41;5227442;28;20038;-66
2023/07/03 08:39:27;;;;;;;13.30;3.80;;;;;;;18.55;100.00;100914.59;5230039;28;20031;-66
2023/07/03 08:42:06;;;;;;;11.55;3.53;;;;;;;18.67;100.00;100917.81;5231008;28;20056;-67
2023/07/03 08:44:37;;;;;;;14.02;3.78;;;;;;;18.73;100.00;100918.97;5219484;28;20021;-66
2023/07/03 08:47:15;;;;;;;14.63;4.40;;;;;;;18.75;100.00;100922.34;5224489;28;20090;-67
2023/07/03 08:49:47;;;;;;;12.30;4.05;;;;;;;18.63;100.00;100918.31;5230049;28;20032;-68
2023/07/03 08:52:26;;;;;;;16.52;4.15;;;;;;;18.60;100.00;100919.47;5226664;28;20067;-67
2023/07/03 08:54:58;;;;;;;12.23;3.60;;;;;;;18.70;100.00;100908.53;5227032;28;20040;-67
2023/07/03 08:57:31;;;;;;;10.75;3.67;;;;;;;18.70;100.00;100913.94;5229358;28;20030;-66
2023/07/03 09:00:10;;;;;;;13.85;4.22;;;;;;;18.64;100.00;100920.00;5226648;28;20032;-66
2023/07/03 09:03:11;;;;;;;13.68;4.15;;;;;;;18.68;100.00;100915.94;5221402;28;20091;-66
2023/07/03 09:06:08;;;;;;;10.43;3.80;;;;;;;18.63;100.00;100915.63;5230191;28;20480;-66
2023/07/03 09:09:02;;;;;;;14.65;4.00;;;;;;;18.67;100.00;100923.19;5225913;28;20033;-67
2023/07/03 09:11:39;;;;;;;11.25;3.58;;;;;;;18.69;100.00;100907.66;5227782;28;20048;-66
2023/07/03 09:14:18;;;;;;;14.38;4.13;;;;;;;18.70;100.00;100919.34;5225318;28;20052;-66
2023/07/03 09:16:50;;;;;;;13.90;4.22;;;;;;;18.73;100.00;100908.16;5231378;28;20025;-66
2023/07/03 09:19:27;;;;;;;15.82;4.43;;;;;;;18.86;100.00;100913.94;5229667;28;20399;-67
2023/07/03 09:22:02;;;;;;;12.02;4.18;;;;;;;18.96;100.00;100906.50;5229316;28;21498;-66
2023/07/03 09:24:41;;;;;;;16.38;4.47;;;;;;;19.11;100.00;100903.94;5230468;28;20036;-66
2023/07/03 09:27:21;;;;;;;13.27;4.18;;;;;;;19.13;100.00;100899.19;5227762;28;20061;-67
2023/07/03 09:29:57;;;;;;;10.77;4.20;;;;;;;19.08;100.00;100901.59;5227703;28;20269;-66
2023/07/03 09:32:31;;;;;;;10.48;4.07;;;;;;;19.02;100.00;100904.97;5225223;28;20032;-66
2023/07/03 09:35:15;;;;;;;14.38;4.80;;;;;;;18.99;100.00;100916.97;5231365;28;20040;-67
2023/07/03 09:37:48;;;;;;;10.70;4.50;;;;;;;19.00;100.00;100921.38;5226287;28;20059;-67
2023/07/03 09:40:37;;;;;;;12.20;4.00;;;;;;;19.14;100.00;100902.78;5225796;28;20043;-67
2023/07/03 09:43:33;;;;;;;11.45;4.25;;;;;;;19.31;100.00;100901.72;5225375;28;20120;-67
2023/07/03 09:46:10;;;;;;;15.38;4.82;;;;;;;19.44;100.00;100911.97;5227089;28;20041;-67
2023/07/03 09:48:42;;;;;;;13.65;4.60;;;;;;;19.48;100.00;100904.34;5226825;28;20022;-67
2023/07/03 09:51:19;;;;;;;10.85;4.28;;;;;;;19.63;100.00;100909.88;5227114;28;20025;-67
2023/07/03 09:53:51;;;;;;;13.38;4.78;;;;;;;19.80;100.00;100908.81;5227808;28;20043;-66
2023/07/03 09:56:28;;;;;;;14.10;4.40;;;;;;;19.69;100.00;100920.00;5230853;28;20452;-66
2023/07/03 09:59:03;;;;;;;14.07;4.65;;;;;;;19.62;100.00;100910.88;5229172;28;20021;-67
2023/07/03 10:01:39;;;;;;;12.05;4.47;;;;;;;19.69;100.00;100912.72;5230980;28;20104;-66
2023/07/03 10:04:13;;;;;;;9.48;4.18;;;;;;;19.80;100.00;100916.94;5223495;28;20029;-67
2023/07/03 10:07:07;;;;;;;12.52;5.07;;;;;;;19.87;100.00;100904.41;5224577;28;20499;-66
2023/07/03 10:09:41;;;;;;;11.68;4.18;;;;;;;19.97;100.00;100901.47;5225518;28;20049;-66
2023/07/03 10:12:22;;;;;;;11.25;4.00;;;;;;;20.15;100.00;100912.88;5229859;28;20037;-66
2023/07/03 10:15:01;;;;;;;12.25;4.72;;;;;;;20.33;100.00;100915.28;5226949;28;20111;-67
2023/07/03 10:17:38;;;;;;;15.52;4.55;;;;;;;20.61;100.00;100919.34;5227730;28;20026;-67
2023/07/03 10:20:20;;;;;;;10.52;4.00;;;;;;;20.69;100.00;100916.56;5226734;28;20116;-66
2023/07/03 10:22:55;;;;;;;9.90;4.00;;;;;;;20.67;100.00;100922.19;5229349;28;20040;-67
2023/07/03 10:25:48;;;;;;;12.70;4.07;;;;;;;20.77;100.00;100930.09;5225723;28;20030;-66
2023/07/03 10:28:31;;;;;;;11.35;3.97;;;;;;;20.61;100.00;100928.31;5229022;28;20112;-66
2023/07/03 10:31:09;;;;;;;9.75;3.30;;;;;;;20.46;100.00;100938.22;5227445;28;20033;-66
2023/07/03 10:33:45;;;;;;;12.27;3.72;;;;;;;20.30;100.00;100934.59;5228584;28;20037;-66
2023/07/03 10:36:25;;;;;;;11.05;4.30;;;;;;;20.29;100.00;100929.41;5228636;28;20048;-66
2023/07/03 10:39:11;;;;;;;9.80;3.60;;;;;;;20.38;100.00;100936.41;5225100;28;20368;-67
2023/07/03 10:41:47;;;;;;;10.48;4.25;;;;;;;20.43;100.00;100933.19;5224161;28;20059;-66
2023/07/03 10:44:25;;;;;;;10.77;4.15;;;;;;;20.42;100.00;100931.50;5224263;28;20040;-66
2023/07/03 10:47:06;;;;;;;11.35;3.40;;;;;;;20.38;100.00;100933.72;5224872;28;21255;-67
2023/07/03 10:49:39;;;;;;;11.05;3.50;;;;;;;20.31;100.00;100940.91;5228388;28;20030;-66
2023/07/03 10:52:30;;;;;;;12.10;3.45;;;;;;;20.28;100.00;100943.94;5220837;28;20029;-67
2023/07/03 10:55:26;;;;;;;8.73;2.83;;;;;;;20.36;100.00;100933.91;5222030;28;20407;-67
2023/07/03 10:58:28;;;;;;;8.65;2.60;;;;;;;20.31;100.00;100936.31;5222983;28;20420;-67
2023/07/03 11:01:10;;;;;;;9.88;2.83;;;;;;;20.37;100.00;100934.75;5226908;28;20034;-67
2023/07/03 11:04:03;;;;;;;13.68;3.00;;;;;;;20.40;100.00;100937.09;5224511;28;20117;-66
2023/07/03 11:06:48;;;;;;;12.50;3.42;;;;;;;20.34;100.00;100929.69;5228595;28;20091;-67
2023/07/03 11:09:28;;;;;;;;;;;;;;;20.51;100.00;100916.88;5229672;28;20038;-67
2023/07/03 11:12:15;;;;;;;10.07;2.70;;;;;;;20.66;100.00;100923.22;5228662;28;19967;-68
2023/07/03 11:15:11;;;;;;;9.25;3.00;;;;;;;20.87;100.00;100924.41;5225052;28;20025;-66
2023/07/03 11:18:11;;;;;;;10.23;2.70;;;;;;;21.02;98.13;100941.56;5229868;28;20330;-67
2023/07/03 11:20:55;;;;;;;9.75;2.72;;;;;;;21.05;100.00;100940.34;5233606;28;20128;-66
2023/07/03 11:24:01;;;;;;;8.18;2.55;;;;;;;20.95;92.46;100937.88;5232756;28;20021;-67
2023/07/03 11:26:38;;;;;;;9.30;2.78;;;;;;;20.70;96.41;100934.53;5232755;28;20029;-67
2023/07/03 11:29:11;;;;;;;8.85;2.30;;;;;;;20.61;90.83;100941.88;5232557;28;20594;-66
2023/07/03 11:31:45;;;;;;;8.90;2.35;;;;;;;20.42;91.75;100936.91;5228963;28;20030;-67
2023/07/03 11:34:18;;;;;;;;;;;;;;;20.63;99.25;100950.69;5228175;28;20057;-67
2023/07/03 11:36:52;;;;;;;10.10;3.03;;;;;;;20.49;96.05;100935.19;5242837;28;19927;-66
2023/07/03 11:39:28;;;;;;;13.18;3.05;;;;;;;20.45;97.42;100942.81;5232898;28;20570;-66
2023/07/03 11:42:00;;;;;;;8.82;3.10;;;;;;;20.48;98.06;100941.59;5254530;28;20144;-66
2023/07/03 11:44:46;;;;;;;10.40;3.00;;;;;;;20.48;99.02;100928.91;5236432;28;20036;-67